Time,TemperatureF,DewpointF,PressureIn,WindDirection,WindDirectionDegrees,WindSpeedMPH,WindSpeedGustMPH,Humidity,HourlyPrecipIn,Conditions,Clouds,dailyrainin,SoftwareType,DateUTC
2013-07-27 00:02:00,63.0,50.2,29.75,SSE,149,0.0,3.1,63,0.00,,SCT250,0.00,VWS V14.01,2013-07-27 04:02:00,
2013-07-27 00:03:00,63.0,50.2,29.75,SSE,165,2.2,3.1,63,0.00,,SCT250,0.00,VWS V14.01,2013-07-27 04:03:00,
2013-07-27 00:09:00,62.8,50.4,29.75,SE,128,3.6,3.6,64,0.00,,SCT250,0.00,VWS V14.01,2013-07-27 04:09:00,
2013-07-27 00:14:00,63.0,51.0,29.75,ESE,109,0.0,0.0,65,0.00,,SCT250,0.00,VWS V14.01,2013-07-27 04:14:00,
2013-07-27 00:15:00,63.0,51.0,29.75,ESE,109,0.0,0.0,65,0.00,,SCT250,0.00,VWS V14.01,2013-07-27 04:15:00,
2013-07-27 00:20:00,63.0,51.0,29.75,ESE,109,0.0,0.0,65,0.00,,SCT250,0.00,VWS V14.01,2013-07-27 04:20:00,
2013-07-27 00:22:00,63.0,51.4,29.75,ESE,109,0.0,0.0,66,0.00,,SCT250,0.00,VWS V14.01,2013-07-27 04:22:00,
2013-07-27 00:27:00,63.1,51.6,29.75,ESE,109,0.0,0.0,66,0.00,,SCT250,0.00,VWS V14.01,2013-07-27 04:27:00,
2013-07-27 00:32:00,63.0,51.4,29.75,ESE,109,0.0,0.0,66,0.00,,SCT250,0.00,VWS V14.01,2013-07-27 04:32:00,
2013-07-27 00:37:00,63.1,52.0,29.72,ESE,109,0.0,0.0,67,0.00,,SCT250,0.00,VWS V14.01,2013-07-27 04:37:00,
2013-07-27 00:42:00,62.6,51.5,29.72,ESE,109,0.0,0.0,67,0.00,,SCT250,0.00,VWS V14.01,2013-07-27 04:42:00,
2013-07-27 00:47:00,62.4,51.3,29.72,ESE,109,0.0,0.0,67,0.00,,SCT250,0.00,VWS V14.01,2013-07-27 04:47:00,
2013-07-27 00:52:00,62.4,52.1,29.72,ESE,109,0.0,0.0,69,0.00,,SCT250,0.00,VWS V14.01,2013-07-27 04:52:00,
2013-07-27 00:57:00,62.2,51.6,29.72,ESE,109,0.0,0.0,68,0.00,,SCT250,0.00,VWS V14.01,2013-07-27 04:57:00,
2013-07-27 01:02:00,62.1,51.4,29.72,ESE,109,0.0,0.0,68,0.00,,SCT250,0.00,VWS V14.01,2013-07-27 05:02:00,
2013-07-27 01:07:00,61.9,51.2,29.72,ESE,109,0.0,0.0,68,0.00,,SCT250,0.00,VWS V14.01,2013-07-27 05:07:00,
2013-07-27 01:12:00,61.7,51.0,29.72,ESE,109,0.0,0.0,68,0.00,,SCT250,0.00,VWS V14.01,2013-07-27 05:12:00,
2013-07-27 01:17:00,61.5,51.3,29.72,ESE,109,0.0,0.0,69,0.00,,SCT250,0.00,VWS V14.01,2013-07-27 05:17:00,
2013-07-27 01:22:00,61.5,51.7,29.72,ESE,109,0.0,0.0,70,0.00,,SCT250,0.00,VWS V14.01,2013-07-27 05:22:00,
2013-07-27 01:27:00,61.2,50.9,29.72,ESE,109,0.0,0.0,69,0.00,,SCT250,0.00,VWS V14.01,2013-07-27 05:27:00,
2013-07-27 01:33:00,61.2,51.3,29.72,ESE,112,0.0,0.0,70,0.00,,SCT280,0.00,VWS V14.01,2013-07-27 05:33:00,
2013-07-27 01:38:00,61.3,51.5,29.72,ESE,111,0.0,0.0,70,0.00,,SCT280,0.00,VWS V14.01,2013-07-27 05:38:00,
2013-07-27 01:43:00,61.3,51.9,29.72,SSE,164,0.0,0.0,71,0.00,,SCT280,0.00,VWS V14.01,2013-07-27 05:43:00,
2013-07-27 01:48:00,61.3,52.6,29.72,South,171,4.0,5.4,73,0.00,,SCT280,0.00,VWS V14.01,2013-07-27 05:48:00,
2013-07-27 01:53:00,61.9,53.5,29.72,SSE,153,2.7,4.9,74,0.00,,SCT280,0.00,VWS V14.01,2013-07-27 05:53:00,
2013-07-27 01:58:00,62.1,54.0,29.72,SSE,162,3.1,5.4,75,0.00,,SCT280,0.00,VWS V14.01,2013-07-27 05:58:00,
2013-07-27 02:03:00,62.2,54.2,29.72,SSE,158,3.1,4.0,75,0.00,,SCT280,0.00,VWS V14.01,2013-07-27 06:03:00,
2013-07-27 02:08:00,62.2,54.2,29.72,South,173,3.1,4.0,75,0.00,,SCT280,0.00,VWS V14.01,2013-07-27 06:08:00,
2013-07-27 02:13:00,62.4,54.4,29.72,South,179,2.7,4.0,75,0.00,,SCT280,0.00,VWS V14.01,2013-07-27 06:13:00,
2013-07-27 02:18:00,62.2,53.9,29.72,South,181,0.0,0.0,74,0.00,,SCT280,0.00,VWS V14.01,2013-07-27 06:18:00,
2013-07-27 02:23:00,62.1,53.7,29.69,South,181,0.0,0.0,74,0.00,,SCT280,0.00,VWS V14.01,2013-07-27 06:23:00,
2013-07-27 02:28:00,61.7,53.3,29.69,South,181,3.1,4.0,74,0.00,,SCT280,0.00,VWS V14.01,2013-07-27 06:28:00,
2013-07-27 02:33:00,61.5,53.2,29.69,South,178,2.7,2.7,74,0.00,,SCT280,0.00,VWS V14.01,2013-07-27 06:33:00,
2013-07-27 02:35:00,61.5,53.2,29.69,South,178,2.2,2.7,74,0.00,,SCT280,0.00,VWS V14.01,2013-07-27 06:35:00,
2013-07-27 02:40:00,61.0,52.7,29.69,South,178,2.7,3.1,74,0.00,,SCT280,0.00,VWS V14.01,2013-07-27 06:40:00,
2013-07-27 02:45:00,61.0,53.0,29.69,South,178,0.0,0.0,75,0.00,,SCT280,0.00,VWS V14.01,2013-07-27 06:45:00,
2013-07-27 02:50:00,60.8,52.8,29.69,South,178,0.0,0.0,75,0.00,,SCT280,0.00,VWS V14.01,2013-07-27 06:50:00,
2013-07-27 02:55:00,60.6,53.0,29.69,South,178,0.0,0.0,76,0.00,,SCT280,0.00,VWS V14.01,2013-07-27 06:55:00,
2013-07-27 03:00:00,60.4,52.8,29.69,South,178,0.0,0.0,76,0.00,,SCT280,0.00,VWS V14.01,2013-07-27 07:00:00,
2013-07-27 03:05:00,60.4,52.8,29.69,South,178,0.0,0.0,76,0.00,,SCT280,0.00,VWS V14.01,2013-07-27 07:05:00,
2013-07-27 03:10:00,60.3,52.7,29.69,South,178,0.0,0.0,76,0.00,,SCT280,0.00,VWS V14.01,2013-07-27 07:10:00,
2013-07-27 03:15:00,60.1,52.1,29.69,South,178,0.0,0.0,75,0.00,,SCT280,0.00,VWS V14.01,2013-07-27 07:15:00,
2013-07-27 03:20:00,60.1,52.5,29.69,South,178,0.0,0.0,76,0.00,,SCT280,0.00,VWS V14.01,2013-07-27 07:20:00,
2013-07-27 03:25:00,60.1,52.9,29.69,South,178,0.0,0.0,77,0.00,,SCT280,0.00,VWS V14.01,2013-07-27 07:25:00,
2013-07-27 03:30:00,60.1,52.9,29.69,South,178,0.0,0.0,77,0.00,,SCT280,0.00,VWS V14.01,2013-07-27 07:30:00,
2013-07-27 03:35:00,59.9,52.7,29.69,South,178,0.0,0.0,77,0.00,,SCT280,0.00,VWS V14.01,2013-07-27 07:35:00,
2013-07-27 03:40:00,59.9,52.7,29.69,South,178,0.0,0.0,77,0.00,,SCT280,0.00,VWS V14.01,2013-07-27 07:40:00,
2013-07-27 03:45:00,59.9,52.7,29.69,South,178,0.0,0.0,77,0.00,,SCT280,0.00,VWS V14.01,2013-07-27 07:45:00,
2013-07-27 03:50:00,59.9,53.0,29.69,South,178,0.0,0.0,78,0.00,,SCT280,0.00,VWS V14.01,2013-07-27 07:50:00,
2013-07-27 03:55:00,59.7,52.5,29.66,South,178,0.0,0.0,77,0.00,,SCT280,0.00,VWS V14.01,2013-07-27 07:55:00,
2013-07-27 04:00:00,59.7,52.5,29.66,South,178,0.0,0.0,77,0.00,,SCT280,0.00,VWS V14.01,2013-07-27 08:00:00,
2013-07-27 04:05:00,59.7,52.9,29.66,South,178,0.0,0.0,78,0.00,,SCT280,0.00,VWS V14.01,2013-07-27 08:05:00,
2013-07-27 04:10:00,59.7,52.9,29.69,South,178,0.0,0.0,78,0.00,,SCT280,0.00,VWS V14.01,2013-07-27 08:10:00,
2013-07-27 04:15:00,59.7,52.9,29.69,South,178,0.0,0.0,78,0.00,,SCT280,0.00,VWS V14.01,2013-07-27 08:15:00,
2013-07-27 04:20:00,59.5,52.7,29.69,South,178,0.0,0.0,78,0.00,,SCT280,0.00,VWS V14.01,2013-07-27 08:20:00,
2013-07-27 04:25:00,59.5,52.7,29.69,South,178,0.0,0.0,78,0.00,,SCT280,0.00,VWS V14.01,2013-07-27 08:25:00,
2013-07-27 04:30:00,59.5,52.7,29.69,South,178,0.0,0.0,78,0.00,,SCT280,0.00,VWS V14.01,2013-07-27 08:30:00,
2013-07-27 04:36:00,59.5,53.0,29.69,South,178,2.7,2.7,79,0.00,,SCT280,0.00,VWS V14.01,2013-07-27 08:36:00,
2013-07-27 04:41:00,59.5,52.7,29.69,South,178,0.0,2.7,78,0.00,,SCT280,0.00,VWS V14.01,2013-07-27 08:41:00,
2013-07-27 04:46:00,59.5,53.0,29.69,South,178,0.0,0.0,79,0.00,,SCT280,0.00,VWS V14.01,2013-07-27 08:46:00,
2013-07-27 04:51:00,59.4,52.9,29.69,South,178,0.0,0.0,79,0.00,,SCT280,0.00,VWS V14.01,2013-07-27 08:51:00,
2013-07-27 04:56:00,59.4,52.9,29.66,South,178,0.0,2.2,79,0.00,,SCT280,0.00,VWS V14.01,2013-07-27 08:56:00,
2013-07-27 05:01:00,59.4,52.9,29.66,South,178,0.0,0.0,79,0.00,,SCT280,0.00,VWS V14.01,2013-07-27 09:01:00,
2013-07-27 05:06:00,59.4,52.9,29.66,South,178,0.0,0.0,79,0.00,,SCT280,0.00,VWS V14.01,2013-07-27 09:06:00,
2013-07-27 05:11:00,59.2,52.7,29.69,South,178,0.0,0.0,79,0.00,,SCT280,0.00,VWS V14.01,2013-07-27 09:11:00,
2013-07-27 05:16:00,59.2,53.0,29.69,South,178,0.0,0.0,80,0.00,,SCT280,0.00,VWS V14.01,2013-07-27 09:16:00,
2013-07-27 05:21:00,59.2,53.0,29.69,South,178,0.0,0.0,80,0.00,,SCT280,0.00,VWS V14.01,2013-07-27 09:21:00,
2013-07-27 05:26:00,59.2,53.4,29.66,South,178,0.0,0.0,81,0.00,,SCT280,0.00,VWS V14.01,2013-07-27 09:26:00,
2013-07-27 05:31:00,59.0,53.2,29.66,South,178,0.0,0.0,81,0.00,,SCT280,0.00,VWS V14.01,2013-07-27 09:31:00,
2013-07-27 05:37:00,59.2,53.4,29.69,South,178,0.0,0.0,81,0.00,,BKN260,0.00,VWS V14.01,2013-07-27 09:37:00,
2013-07-27 05:42:00,59.2,53.4,29.69,South,178,0.0,0.0,81,0.00,,BKN260,0.00,VWS V14.01,2013-07-27 09:42:00,
2013-07-27 05:47:00,59.2,53.4,29.69,South,178,0.0,0.0,81,0.00,,BKN260,0.00,VWS V14.01,2013-07-27 09:47:00,
2013-07-27 05:53:00,59.2,53.4,29.66,South,178,0.0,0.0,81,0.00,,BKN260,0.00,VWS V14.01,2013-07-27 09:53:00,
2013-07-27 05:58:00,59.2,53.7,29.66,South,178,0.0,0.0,82,0.00,,BKN260,0.00,VWS V14.01,2013-07-27 09:58:00,
2013-07-27 06:03:00,59.2,53.7,29.66,South,178,0.0,0.0,82,0.00,,BKN260,0.00,VWS V14.01,2013-07-27 10:03:00,
2013-07-27 06:08:00,59.2,53.4,29.69,South,178,0.0,0.0,81,0.00,,BKN260,0.00,VWS V14.01,2013-07-27 10:08:00,
2013-07-27 06:13:00,59.0,53.2,29.69,South,178,0.0,0.0,81,0.00,,BKN260,0.00,VWS V14.01,2013-07-27 10:13:00,
2013-07-27 06:18:00,59.0,53.2,29.69,South,178,3.1,3.1,81,0.00,,BKN260,0.00,VWS V14.01,2013-07-27 10:18:00,
2013-07-27 06:23:00,59.0,53.2,29.69,South,178,2.7,2.7,81,0.00,,BKN260,0.00,VWS V14.01,2013-07-27 10:23:00,
2013-07-27 06:28:00,59.5,53.7,29.69,SE,133,2.7,2.7,81,0.00,,BKN260,0.00,VWS V14.01,2013-07-27 10:28:00,
2013-07-27 06:33:00,59.7,53.9,29.69,SSE,151,3.1,3.1,81,0.00,,BKN250,0.00,VWS V14.01,2013-07-27 10:33:00,
2013-07-27 06:38:00,59.9,53.7,29.69,SSE,151,0.0,0.0,80,0.00,,BKN250,0.00,VWS V14.01,2013-07-27 10:38:00,
2013-07-27 06:43:00,59.7,53.9,29.69,SSE,151,0.0,0.0,81,0.00,,BKN250,0.00,VWS V14.01,2013-07-27 10:43:00,
2013-07-27 06:48:00,59.7,53.9,29.69,SSE,151,0.0,0.0,81,0.00,,BKN250,0.00,VWS V14.01,2013-07-27 10:48:00,
2013-07-27 06:53:00,60.4,54.9,29.69,SSE,151,0.0,0.0,82,0.00,,BKN250,0.00,VWS V14.01,2013-07-27 10:53:00,
2013-07-27 06:58:00,60.6,55.1,29.69,SSE,151,0.0,0.0,82,0.00,,BKN250,0.00,VWS V14.01,2013-07-27 10:58:00,
2013-07-27 07:03:00,61.0,55.1,29.69,SSE,151,0.0,0.0,81,0.00,,BKN250,0.00,VWS V14.01,2013-07-27 11:03:00,
2013-07-27 07:08:00,61.3,55.8,29.69,South,187,0.0,0.0,82,0.00,,BKN250,0.00,VWS V14.01,2013-07-27 11:08:00,
2013-07-27 07:13:00,61.7,56.2,29.69,SSW,194,0.0,0.0,82,0.00,,BKN250,0.00,VWS V14.01,2013-07-27 11:13:00,
2013-07-27 07:18:00,61.9,56.0,29.69,South,183,0.0,0.0,81,0.00,,BKN250,0.00,VWS V14.01,2013-07-27 11:18:00,
2013-07-27 07:23:00,62.1,56.2,29.66,SSW,192,3.6,3.6,81,0.00,,BKN250,0.00,VWS V14.01,2013-07-27 11:23:00,
2013-07-27 07:28:00,62.2,56.0,29.66,SSW,194,0.0,2.2,80,0.00,,BKN250,0.00,VWS V14.01,2013-07-27 11:28:00,
2013-07-27 07:33:00,62.4,56.5,29.66,SSW,194,0.0,0.0,81,0.00,,BKN260,0.00,VWS V14.01,2013-07-27 11:33:00,
2013-07-27 07:38:00,62.6,56.7,29.66,SSW,194,0.0,0.0,81,0.00,,BKN260,0.00,VWS V14.01,2013-07-27 11:38:00,
2013-07-27 07:43:00,63.1,57.6,29.66,SSW,194,0.0,0.0,82,0.00,,BKN260,0.00,VWS V14.01,2013-07-27 11:43:00,
2013-07-27 07:48:00,63.3,57.4,29.66,South,176,2.2,3.1,81,0.00,,BKN260,0.00,VWS V14.01,2013-07-27 11:48:00,
2013-07-27 07:53:00,63.5,57.6,29.66,South,175,3.6,5.4,81,0.00,,BKN260,0.00,VWS V14.01,2013-07-27 11:53:00,
2013-07-27 07:58:00,63.9,57.9,29.66,SSE,164,2.7,3.6,81,0.00,,BKN260,0.00,VWS V14.01,2013-07-27 11:58:00,
2013-07-27 08:04:00,64.2,58.3,29.66,South,189,3.6,5.4,81,0.00,,BKN260,0.00,VWS V14.01,2013-07-27 12:04:00,
2013-07-27 08:09:00,64.9,59.0,29.69,South,172,4.0,4.0,81,0.00,,BKN260,0.00,VWS V14.01,2013-07-27 12:09:00,
2013-07-27 08:14:00,65.7,59.7,29.69,South,180,2.7,3.6,81,0.00,,BKN260,0.00,VWS V14.01,2013-07-27 12:14:00,
2013-07-27 08:19:00,66.2,59.9,29.69,South,183,3.1,4.0,80,0.00,,BKN260,0.00,VWS V14.01,2013-07-27 12:19:00,
2013-07-27 08:24:00,66.7,60.4,29.66,SSE,165,2.7,5.4,80,0.00,,BKN260,0.00,VWS V14.01,2013-07-27 12:24:00,
2013-07-27 08:29:00,67.3,60.5,29.66,South,190,4.9,4.9,79,0.00,,BKN260,0.00,VWS V14.01,2013-07-27 12:29:00,
2013-07-27 08:34:00,67.8,60.7,29.66,South,180,5.4,5.8,78,0.00,,BKN270,0.00,VWS V14.01,2013-07-27 12:34:00,
2013-07-27 08:39:00,68.4,61.2,29.66,SSW,206,5.4,5.4,78,0.00,,BKN270,0.00,VWS V14.01,2013-07-27 12:39:00,
2013-07-27 08:44:00,68.7,61.2,29.66,SSE,165,2.7,4.9,77,0.00,,BKN270,0.00,VWS V14.01,2013-07-27 12:44:00,
2013-07-27 08:49:00,69.3,61.8,29.66,South,170,0.0,2.2,77,0.00,,BKN270,0.00,VWS V14.01,2013-07-27 12:49:00,
2013-07-27 08:54:00,69.6,62.1,29.69,South,170,0.0,2.7,77,0.00,,BKN270,0.00,VWS V14.01,2013-07-27 12:54:00,
2013-07-27 08:59:00,70.2,62.6,29.69,SSE,153,3.6,3.6,77,0.00,,BKN270,0.00,VWS V14.01,2013-07-27 12:59:00,
2013-07-27 09:04:00,70.5,62.2,29.69,South,190,4.0,4.0,75,0.00,,BKN270,0.00,VWS V14.01,2013-07-27 13:04:00,
2013-07-27 09:09:00,70.7,61.6,29.66,SSE,154,3.6,4.0,73,0.00,,BKN270,0.00,VWS V14.01,2013-07-27 13:09:00,
2013-07-27 09:14:00,70.9,61.8,29.66,South,172,3.1,3.1,73,0.00,,BKN270,0.00,VWS V14.01,2013-07-27 13:14:00,
2013-07-27 09:19:00,71.2,62.2,29.66,South,176,2.7,4.0,73,0.00,,BKN270,0.00,VWS V14.01,2013-07-27 13:19:00,
2013-07-27 09:24:00,72.0,62.5,29.66,SW,226,2.2,3.6,72,0.00,,BKN270,0.00,VWS V14.01,2013-07-27 13:24:00,
2013-07-27 09:30:00,72.7,63.5,29.66,South,171,6.3,6.3,73,0.00,,BKN270,0.00,VWS V14.01,2013-07-27 13:30:00,
2013-07-27 09:35:00,72.7,61.9,29.66,SSW,207,0.0,5.8,69,0.00,,BKN250,0.00,VWS V14.01,2013-07-27 13:35:00,
2013-07-27 09:40:00,73.0,62.3,29.66,SSW,193,0.0,4.9,69,0.00,,BKN250,0.00,VWS V14.01,2013-07-27 13:40:00,
2013-07-27 09:45:00,73.6,63.6,29.66,SSE,165,3.1,4.0,71,0.00,,BKN250,0.00,VWS V14.01,2013-07-27 13:45:00,
2013-07-27 09:50:00,74.3,62.6,29.66,South,183,2.7,5.4,67,0.00,,BKN250,0.00,VWS V14.01,2013-07-27 13:50:00,
2013-07-27 09:55:00,74.3,62.2,29.66,South,169,5.8,5.8,66,0.00,,BKN250,0.00,VWS V14.01,2013-07-27 13:55:00,
2013-07-27 10:00:00,74.7,62.6,29.66,SSW,205,2.7,3.6,66,0.00,,BKN250,0.00,VWS V14.01,2013-07-27 14:00:00,
2013-07-27 10:05:00,74.8,62.3,29.66,SSW,210,4.0,5.8,65,0.00,,BKN250,0.00,VWS V14.01,2013-07-27 14:05:00,
2013-07-27 10:10:00,75.0,61.6,29.66,South,169,3.6,6.3,63,0.00,,BKN250,0.00,VWS V14.01,2013-07-27 14:10:00,
2013-07-27 10:15:00,75.0,61.1,29.66,SE,124,5.4,6.3,62,0.00,,BKN250,0.00,VWS V14.01,2013-07-27 14:15:00,
2013-07-27 10:20:00,75.4,61.5,29.66,SSE,166,2.7,4.0,62,0.00,,BKN250,0.00,VWS V14.01,2013-07-27 14:20:00,
2013-07-27 10:25:00,75.9,62.0,29.66,ESE,116,2.2,4.5,62,0.00,,BKN250,0.00,VWS V14.01,2013-07-27 14:25:00,
2013-07-27 10:30:00,76.3,62.3,29.66,South,172,3.1,4.0,62,0.00,,BKN250,0.00,VWS V14.01,2013-07-27 14:30:00,
2013-07-27 10:35:00,76.5,62.9,29.66,SSE,149,0.0,3.6,63,0.00,,BKN200,0.00,VWS V14.01,2013-07-27 14:35:00,
2013-07-27 10:40:00,76.5,63.4,29.66,East,93,3.6,5.4,64,0.00,,BKN200,0.00,VWS V14.01,2013-07-27 14:40:00,
2013-07-27 10:45:00,77.0,64.3,29.66,SE,140,4.0,4.0,65,0.00,,BKN200,0.00,VWS V14.01,2013-07-27 14:45:00,
2013-07-27 10:50:00,77.2,63.6,29.66,SE,143,3.1,6.3,63,0.00,,BKN200,0.00,VWS V14.01,2013-07-27 14:50:00,
2013-07-27 10:55:00,77.4,63.8,29.66,ESE,123,3.6,5.8,63,0.00,,BKN200,0.00,VWS V14.01,2013-07-27 14:55:00,
2013-07-27 11:00:00,77.7,64.6,29.66,NE,56,3.6,4.9,64,0.00,,BKN200,0.00,VWS V14.01,2013-07-27 15:00:00,
2013-07-27 11:05:00,78.1,64.0,29.66,SSE,155,4.0,4.0,62,0.00,,BKN200,0.00,VWS V14.01,2013-07-27 15:05:00,
2013-07-27 11:10:00,78.4,63.4,29.66,South,172,2.7,4.9,60,0.00,,BKN200,0.00,VWS V14.01,2013-07-27 15:10:00,
2013-07-27 11:16:00,78.3,63.2,29.66,South,176,4.0,5.4,60,0.00,,BKN200,0.00,VWS V14.01,2013-07-27 15:16:00,
2013-07-27 11:21:00,77.9,62.4,29.66,SW,220,3.1,5.8,59,0.00,,BKN200,0.00,VWS V14.01,2013-07-27 15:21:00,
2013-07-27 11:26:00,78.1,63.1,29.66,SSW,210,5.8,7.2,60,0.00,,BKN200,0.00,VWS V14.01,2013-07-27 15:26:00,
2013-07-27 11:31:00,78.4,62.0,29.66,SW,235,5.8,6.7,57,0.00,,BKN200,0.00,VWS V14.01,2013-07-27 15:31:00,
2013-07-27 11:36:00,78.3,60.8,29.66,SW,216,4.0,6.3,55,0.00,,OVC230,0.00,VWS V14.01,2013-07-27 15:36:00,
2013-07-27 11:41:00,77.7,59.8,29.66,SW,217,5.4,8.1,54,0.00,,OVC230,0.00,VWS V14.01,2013-07-27 15:41:00,
2013-07-27 11:46:00,77.7,59.8,29.66,SW,218,3.6,5.8,54,0.00,,OVC230,0.00,VWS V14.01,2013-07-27 15:46:00,
2013-07-27 11:51:00,78.1,60.6,29.66,South,186,6.7,6.7,55,0.00,,OVC230,0.00,VWS V14.01,2013-07-27 15:51:00,
2013-07-27 11:56:00,77.7,59.8,29.66,WSW,250,4.0,8.3,54,0.00,,OVC230,0.00,VWS V14.01,2013-07-27 15:56:00,
2013-07-27 12:01:00,77.9,60.5,29.66,SW,236,4.9,8.3,55,0.00,,OVC230,0.00,VWS V14.01,2013-07-27 16:01:00,
2013-07-27 12:07:00,78.1,60.6,29.66,SSW,213,4.0,6.3,55,0.00,,OVC230,0.00,VWS V14.01,2013-07-27 16:07:00,
2013-07-27 12:12:00,78.1,60.1,29.66,SW,222,5.8,5.8,54,0.00,,OVC230,0.00,VWS V14.01,2013-07-27 16:12:00,
2013-07-27 12:17:00,78.8,61.8,29.66,SW,226,3.6,6.3,56,0.00,,OVC230,0.00,VWS V14.01,2013-07-27 16:17:00,
2013-07-27 12:22:00,79.2,61.1,29.66,SW,220,6.3,6.3,54,0.00,,OVC230,0.00,VWS V14.01,2013-07-27 16:22:00,
2013-07-27 12:27:00,79.7,61.6,29.66,SW,223,5.8,6.3,54,0.00,,OVC230,0.00,VWS V14.01,2013-07-27 16:27:00,
2013-07-27 12:33:00,79.7,61.6,29.66,SW,225,4.0,8.3,54,0.00,,OVC230,0.00,VWS V14.01,2013-07-27 16:33:00,
2013-07-27 12:38:00,79.5,61.4,29.66,SW,227,4.9,7.6,54,0.00,,OVC230,0.00,VWS V14.01,2013-07-27 16:38:00,
2013-07-27 12:43:00,79.2,60.0,29.66,SW,214,4.9,6.3,52,0.00,,OVC230,0.00,VWS V14.01,2013-07-27 16:43:00,
2013-07-27 12:48:00,79.2,60.6,29.66,SW,220,5.8,5.8,53,0.00,,OVC230,0.00,VWS V14.01,2013-07-27 16:48:00,
2013-07-27 12:53:00,79.3,61.3,29.66,South,183,6.3,6.3,54,0.00,,OVC230,0.00,VWS V14.01,2013-07-27 16:53:00,
2013-07-27 12:58:00,79.0,60.9,29.66,SW,214,6.3,6.3,54,0.00,,OVC230,0.00,VWS V14.01,2013-07-27 16:58:00,
2013-07-27 13:03:00,79.0,60.9,29.66,SW,217,4.9,5.8,54,0.00,,BKN200,0.00,VWS V14.01,2013-07-27 17:03:00,
2013-07-27 13:08:00,78.6,61.1,29.66,SSW,209,3.1,5.8,55,0.00,,BKN200,0.00,VWS V14.01,2013-07-27 17:08:00,
2013-07-27 13:13:00,78.4,61.0,29.66,South,187,5.8,6.3,55,0.00,,BKN200,0.00,VWS V14.01,2013-07-27 17:13:00,
2013-07-27 13:18:00,78.3,60.8,29.66,South,169,4.9,8.3,55,0.00,,BKN200,0.00,VWS V14.01,2013-07-27 17:18:00,
2013-07-27 13:23:00,78.1,60.6,29.66,SSE,154,6.3,8.1,55,0.00,,BKN200,0.00,VWS V14.01,2013-07-27 17:23:00,
2013-07-27 13:28:00,78.1,60.6,29.66,SSE,163,6.3,8.7,55,0.00,,BKN200,0.00,VWS V14.01,2013-07-27 17:28:00,
2013-07-27 13:33:00,78.3,61.3,29.66,South,179,8.1,8.7,56,0.00,,BKN200,0.00,VWS V14.01,2013-07-27 17:33:00,
2013-07-27 13:38:00,78.4,62.0,29.63,SSE,164,6.7,8.3,57,0.00,,BKN200,0.00,VWS V14.01,2013-07-27 17:38:00,
2013-07-27 13:43:00,78.8,61.8,29.63,South,188,7.6,8.1,56,0.00,,BKN200,0.00,VWS V14.01,2013-07-27 17:43:00,
2013-07-27 13:48:00,78.4,61.5,29.63,SW,229,7.6,10.1,56,0.00,,BKN200,0.00,VWS V14.01,2013-07-27 17:48:00,
2013-07-27 13:53:00,78.4,61.0,29.63,SSW,208,6.3,8.7,55,0.00,,BKN200,0.00,VWS V14.01,2013-07-27 17:53:00,
2013-07-27 13:59:00,78.6,60.6,29.63,SSW,206,7.6,10.1,54,0.00,,BKN200,0.00,VWS V14.01,2013-07-27 17:59:00,
2013-07-27 14:04:00,78.3,59.2,29.63,South,182,6.3,8.3,52,0.00,,OVC150,0.00,VWS V14.01,2013-07-27 18:04:00,
2013-07-27 14:09:00,77.9,59.4,29.63,SSW,212,5.4,10.1,53,0.00,,OVC150,0.00,VWS V14.01,2013-07-27 18:09:00,
2013-07-27 14:14:00,78.1,60.1,29.63,South,186,4.9,8.7,54,0.00,,OVC150,0.00,VWS V14.01,2013-07-27 18:14:00,
2013-07-27 14:19:00,78.1,60.1,29.63,SSW,197,5.4,8.3,54,0.00,,OVC150,0.00,VWS V14.01,2013-07-27 18:19:00,
2013-07-27 14:24:00,78.1,60.1,29.63,South,176,4.9,6.3,54,0.00,,OVC150,0.00,VWS V14.01,2013-07-27 18:24:00,
2013-07-27 14:29:00,77.7,59.8,29.63,SW,225,6.3,8.1,54,0.00,,OVC150,0.00,VWS V14.01,2013-07-27 18:29:00,
2013-07-27 14:34:00,77.7,59.8,29.63,SW,218,4.0,5.8,54,0.00,,-RA,0.00,VWS V14.01,2013-07-27 18:34:00,
2013-07-27 14:39:00,77.7,60.3,29.63,South,179,5.4,8.1,55,0.00,,-RA,0.00,VWS V14.01,2013-07-27 18:39:00,
2013-07-27 14:44:00,77.5,60.1,29.63,South,186,3.6,5.4,55,0.00,,-RA,0.00,VWS V14.01,2013-07-27 18:44:00,
2013-07-27 14:49:00,77.4,59.4,29.63,SSW,208,4.0,6.3,54,0.00,,-RA,0.00,VWS V14.01,2013-07-27 18:49:00,
2013-07-27 14:55:00,77.2,59.3,29.63,SSW,193,3.6,8.1,54,0.00,,-RA,0.00,VWS V14.01,2013-07-27 18:55:00,
2013-07-27 15:00:00,77.4,60.0,29.63,SW,218,5.4,5.4,55,0.00,,-RA,0.00,VWS V14.01,2013-07-27 19:00:00,
2013-07-27 15:05:00,77.4,60.0,29.63,SW,235,5.8,7.2,55,0.00,,-RA,0.00,VWS V14.01,2013-07-27 19:05:00,
2013-07-27 15:10:00,77.4,60.0,29.63,SSW,203,8.7,8.7,55,0.00,,-RA,0.00,VWS V14.01,2013-07-27 19:10:00,
2013-07-27 15:15:00,77.0,59.6,29.63,SSE,150,6.3,8.7,55,0.00,,-RA,0.00,VWS V14.01,2013-07-27 19:15:00,
2013-07-27 15:20:00,76.8,59.5,29.63,South,177,5.4,7.6,55,0.00,,-RA,0.00,VWS V14.01,2013-07-27 19:20:00,
2013-07-27 15:25:00,76.6,59.3,29.63,SSW,192,5.8,8.1,55,0.00,,-RA,0.00,VWS V14.01,2013-07-27 19:25:00,
2013-07-27 15:30:00,76.6,59.3,29.63,SSE,156,8.3,8.3,55,0.00,,-RA,0.00,VWS V14.01,2013-07-27 19:30:00,
2013-07-27 15:35:00,76.6,59.3,29.63,SSW,193,4.9,8.3,55,0.00,,-RA,0.00,VWS V14.01,2013-07-27 19:35:00,
2013-07-27 15:41:00,76.8,60.5,29.63,SSW,200,6.3,6.3,57,0.00,,-RA,0.00,VWS V14.01,2013-07-27 19:41:00,
2013-07-27 15:46:00,76.8,60.0,29.63,South,190,5.8,8.1,56,0.00,,-RA,0.00,VWS V14.01,2013-07-27 19:46:00,
2013-07-27 15:51:00,77.0,59.6,29.63,South,171,6.3,9.6,55,0.00,,-RA,0.00,VWS V14.01,2013-07-27 19:51:00,
2013-07-27 15:57:00,77.0,59.6,29.63,South,173,3.1,8.3,55,0.00,,-RA,0.00,VWS V14.01,2013-07-27 19:57:00,
2013-07-27 16:02:00,77.2,60.8,29.63,SE,146,4.0,5.8,57,0.00,,-RA,0.00,VWS V14.01,2013-07-27 20:02:00,
2013-07-27 16:07:00,77.4,61.0,29.60,SSE,151,5.8,6.3,57,0.00,,-RA,0.00,VWS V14.01,2013-07-27 20:07:00,
2013-07-27 16:12:00,77.4,61.0,29.60,SSE,167,5.8,7.6,57,0.00,,-RA,0.00,VWS V14.01,2013-07-27 20:12:00,
2013-07-27 16:17:00,77.0,60.6,29.60,SSE,153,4.0,8.3,57,0.00,,-RA,0.00,VWS V14.01,2013-07-27 20:17:00,
2013-07-27 16:22:00,76.6,60.3,29.60,South,173,5.8,11.0,57,0.00,,-RA,0.00,VWS V14.01,2013-07-27 20:22:00,
2013-07-27 16:27:00,76.5,60.6,29.60,SSE,161,5.8,9.6,58,0.00,,-RA,0.00,VWS V14.01,2013-07-27 20:27:00,
2013-07-27 16:32:00,76.1,60.3,29.60,SW,217,8.3,11.9,58,0.00,,-RA,0.00,VWS V14.01,2013-07-27 20:32:00,
2013-07-27 16:37:00,76.3,60.9,29.60,SSE,157,5.8,10.5,59,0.00,,-RA,0.00,VWS V14.01,2013-07-27 20:37:00,
2013-07-27 16:42:00,76.1,60.8,29.60,South,176,9.6,10.5,59,0.00,,-RA,0.00,VWS V14.01,2013-07-27 20:42:00,
2013-07-27 16:47:00,75.7,59.9,29.60,SSE,156,6.3,10.5,58,0.00,,-RA,0.00,VWS V14.01,2013-07-27 20:47:00,
2013-07-27 16:52:00,75.6,60.2,29.60,SW,218,7.2,7.2,59,0.00,,-RA,0.00,VWS V14.01,2013-07-27 20:52:00,
2013-07-27 16:57:00,75.6,60.2,29.60,SSE,156,8.3,8.3,59,0.00,,-RA,0.00,VWS V14.01,2013-07-27 20:57:00,
2013-07-27 17:02:00,75.4,59.6,29.60,South,170,6.3,12.8,58,0.00,,-RA,0.00,VWS V14.01,2013-07-27 21:02:00,
2013-07-27 17:07:00,75.6,59.8,29.60,SSE,154,5.4,6.7,58,0.00,,-RA,0.00,VWS V14.01,2013-07-27 21:07:00,
2013-07-27 17:12:00,75.4,60.1,29.60,South,175,4.0,10.5,59,0.00,,-RA,0.00,VWS V14.01,2013-07-27 21:12:00,
2013-07-27 17:17:00,75.7,60.9,29.60,SW,225,5.4,5.4,60,0.00,,-RA,0.00,VWS V14.01,2013-07-27 21:17:00,
2013-07-27 17:22:00,75.6,59.8,29.60,SW,227,8.1,8.1,58,0.00,,-RA,0.00,VWS V14.01,2013-07-27 21:22:00,
2013-07-27 17:27:00,75.4,59.6,29.60,South,169,4.9,4.9,58,0.00,,-RA,0.00,VWS V14.01,2013-07-27 21:27:00,
2013-07-27 17:33:00,75.0,59.3,29.60,South,175,8.1,8.1,58,0.00,,-RA,0.00,VWS V14.01,2013-07-27 21:33:00,
2013-07-27 17:38:00,74.8,59.6,29.60,SSE,162,5.8,5.8,59,0.00,,-RA,0.00,VWS V14.01,2013-07-27 21:38:00,
2013-07-27 17:43:00,74.7,59.4,29.60,SSW,196,4.9,4.9,59,0.00,,-RA,0.00,VWS V14.01,2013-07-27 21:43:00,
2013-07-27 17:48:00,74.8,60.0,29.60,South,180,5.4,6.7,60,0.00,,-RA,0.00,VWS V14.01,2013-07-27 21:48:00,
2013-07-27 17:53:00,74.8,60.0,29.60,South,191,3.6,3.6,60,0.00,,-RA,0.00,VWS V14.01,2013-07-27 21:53:00,
2013-07-27 17:58:00,74.7,60.3,29.60,South,184,2.7,3.1,61,0.00,,-RA,0.00,VWS V14.01,2013-07-27 21:58:00,
2013-07-27 18:03:00,74.8,60.0,29.60,SSW,210,2.2,3.1,60,0.00,,OVC090,0.00,VWS V14.01,2013-07-27 22:03:00,
2013-07-27 18:08:00,74.7,59.9,29.60,South,187,3.1,3.1,60,0.00,,OVC090,0.00,VWS V14.01,2013-07-27 22:08:00,
2013-07-27 18:13:00,74.7,59.9,29.60,SW,214,4.0,4.9,60,0.00,,OVC090,0.00,VWS V14.01,2013-07-27 22:13:00,
2013-07-27 18:18:00,74.7,59.9,29.60,SSW,194,2.7,4.9,60,0.00,,OVC090,0.00,VWS V14.01,2013-07-27 22:18:00,
2013-07-27 18:23:00,74.7,60.3,29.60,SSE,157,3.6,4.9,61,0.00,,OVC090,0.00,VWS V14.01,2013-07-27 22:23:00,
2013-07-27 18:28:00,74.5,59.7,29.60,SSE,164,5.4,5.8,60,0.00,,OVC090,0.00,VWS V14.01,2013-07-27 22:28:00,
2013-07-27 18:34:00,74.5,60.2,29.60,SE,138,8.3,8.3,61,0.00,,OVC090,0.00,VWS V14.01,2013-07-27 22:34:00,
2013-07-27 18:39:00,74.1,59.8,29.60,South,180,5.4,7.2,61,0.00,,OVC090,0.00,VWS V14.01,2013-07-27 22:39:00,
2013-07-27 18:44:00,73.9,59.2,29.60,South,172,3.6,7.6,60,0.00,,OVC090,0.00,VWS V14.01,2013-07-27 22:44:00,
2013-07-27 18:49:00,73.8,59.5,29.60,South,189,5.8,6.3,61,0.00,,OVC090,0.00,VWS V14.01,2013-07-27 22:49:00,
2013-07-27 18:54:00,73.6,59.3,29.60,South,185,8.1,11.9,61,0.00,,OVC090,0.00,VWS V14.01,2013-07-27 22:54:00,
2013-07-27 18:59:00,73.2,59.4,29.60,South,186,6.3,8.7,62,0.00,,OVC090,0.00,VWS V14.01,2013-07-27 22:59:00,
2013-07-27 19:04:00,73.2,59.9,29.60,South,179,7.6,8.3,63,0.00,,OVC090,0.00,VWS V14.01,2013-07-27 23:04:00,
2013-07-27 19:09:00,73.2,59.9,29.60,South,175,6.7,6.7,63,0.00,,OVC090,0.00,VWS V14.01,2013-07-27 23:09:00,
2013-07-27 19:14:00,73.2,59.9,29.60,SSE,157,6.3,7.6,63,0.00,,OVC090,0.00,VWS V14.01,2013-07-27 23:14:00,
2013-07-27 19:19:00,73.2,60.3,29.60,SE,146,2.2,5.4,64,0.00,,OVC090,0.00,VWS V14.01,2013-07-27 23:19:00,
2013-07-27 19:24:00,72.9,60.0,29.60,South,183,5.4,8.7,64,0.00,,OVC090,0.00,VWS V14.01,2013-07-27 23:24:00,
2013-07-27 19:29:00,72.7,59.8,29.60,SSE,165,3.1,8.7,64,0.00,,OVC090,0.00,VWS V14.01,2013-07-27 23:29:00,
2013-07-27 19:34:00,72.7,60.2,29.60,SSE,152,2.7,5.4,65,0.00,,OVC031,0.00,VWS V14.01,2013-07-27 23:34:00,
2013-07-27 19:40:00,72.5,60.1,29.60,SSE,157,5.4,7.2,65,0.00,,OVC031,0.00,VWS V14.01,2013-07-27 23:40:00,
2013-07-27 19:45:00,72.3,59.9,29.60,SSE,156,3.1,6.3,65,0.00,,OVC031,0.00,VWS V14.01,2013-07-27 23:45:00,
2013-07-27 19:50:00,72.0,59.6,29.60,SE,142,4.5,6.3,65,0.00,,OVC031,0.00,VWS V14.01,2013-07-27 23:50:00,
2013-07-27 19:55:00,72.0,60.0,29.60,SSE,160,5.8,6.3,66,0.00,,OVC031,0.00,VWS V14.01,2013-07-27 23:55:00,
2013-07-27 20:00:00,71.8,59.8,29.60,SSE,166,5.8,8.3,66,0.00,,OVC031,0.00,VWS V14.01,2013-07-28 00:00:00,
2013-07-27 20:05:00,71.6,60.1,29.60,SSE,154,4.9,5.8,67,0.00,,OVC031,0.00,VWS V14.01,2013-07-28 00:05:00,
2013-07-27 20:10:00,71.4,60.3,29.60,SSE,162,5.8,5.8,68,0.00,,OVC031,0.00,VWS V14.01,2013-07-28 00:10:00,
2013-07-27 20:15:00,71.4,60.3,29.60,SE,143,0.0,4.0,68,0.00,,OVC031,0.00,VWS V14.01,2013-07-28 00:15:00,
2013-07-27 20:20:00,71.2,60.2,29.60,ESE,117,7.6,7.6,68,0.00,,OVC031,0.00,VWS V14.01,2013-07-28 00:20:00,
2013-07-27 20:25:00,71.1,60.0,29.60,SE,142,4.0,8.3,68,0.00,,OVC031,0.00,VWS V14.01,2013-07-28 00:25:00,
2013-07-27 20:30:00,70.9,59.8,29.60,SE,132,6.3,6.3,68,0.00,,OVC031,0.00,VWS V14.01,2013-07-28 00:30:00,
2013-07-27 20:35:00,70.7,59.6,29.60,SSE,148,0.0,5.8,68,0.00,,OVC090,0.00,VWS V14.01,2013-07-28 00:35:00,
2013-07-27 20:40:00,70.7,60.0,29.60,SE,128,4.0,5.8,69,0.00,,OVC090,0.00,VWS V14.01,2013-07-28 00:40:00,
2013-07-27 20:45:00,70.5,59.9,29.60,SE,135,5.4,7.6,69,0.00,,OVC090,0.00,VWS V14.01,2013-07-28 00:45:00,
2013-07-27 20:50:00,70.3,60.1,29.60,SE,140,4.0,5.8,70,0.00,,OVC090,0.00,VWS V14.01,2013-07-28 00:50:00,
2013-07-27 20:55:00,70.2,60.3,29.60,SSE,163,4.0,6.3,71,0.00,,OVC090,0.00,VWS V14.01,2013-07-28 00:55:00,
2013-07-27 21:00:00,70.0,60.5,29.60,SE,144,6.3,6.3,72,0.00,,OVC090,0.00,VWS V14.01,2013-07-28 01:00:00,
2013-07-27 21:06:00,69.6,60.6,29.60,SSE,156,3.1,8.1,73,0.00,,OVC090,0.00,VWS V14.01,2013-07-28 01:06:00,
2013-07-27 21:11:00,69.4,60.4,29.60,South,180,4.0,6.3,73,0.00,,OVC090,0.00,VWS V14.01,2013-07-28 01:11:00,
2013-07-27 21:16:00,69.4,60.8,29.60,SE,144,3.1,5.8,74,0.00,,OVC090,0.00,VWS V14.01,2013-07-28 01:16:00,
2013-07-27 21:21:00,69.3,60.6,29.60,SSE,165,2.7,4.0,74,0.00,,OVC090,0.00,VWS V14.01,2013-07-28 01:21:00,
2013-07-27 21:26:00,69.3,60.6,29.60,South,170,4.0,5.4,74,0.00,,OVC090,0.00,VWS V14.01,2013-07-28 01:26:00,
2013-07-27 21:31:00,69.1,60.8,29.60,SSE,149,2.7,6.7,75,0.00,,OVC090,0.00,VWS V14.01,2013-07-28 01:31:00,
2013-07-27 21:36:00,68.9,60.7,29.60,SE,142,4.0,4.9,75,0.00,,OVC090,0.00,VWS V14.01,2013-07-28 01:36:00,
2013-07-27 21:41:00,68.9,61.0,29.60,SE,146,5.4,7.6,76,0.00,,OVC090,0.00,VWS V14.01,2013-07-28 01:41:00,
2013-07-27 21:46:00,68.9,61.0,29.60,SSE,168,3.6,4.9,76,0.00,,OVC090,0.00,VWS V14.01,2013-07-28 01:46:00,
2013-07-27 21:51:00,68.7,60.9,29.60,South,172,5.8,5.8,76,0.00,,OVC090,0.00,VWS V14.01,2013-07-28 01:51:00,
2013-07-27 21:56:00,68.7,60.9,29.60,SSE,161,3.6,6.3,76,0.00,,OVC090,0.00,VWS V14.01,2013-07-28 01:56:00,
2013-07-27 22:01:00,68.7,61.2,29.60,SSE,168,2.7,5.8,77,0.00,,OVC090,0.00,VWS V14.01,2013-07-28 02:01:00,
2013-07-27 22:07:00,68.5,61.0,29.60,South,171,3.1,5.4,77,0.00,,OVC110,0.00,VWS V14.01,2013-07-28 02:07:00,
2013-07-27 22:12:00,68.4,61.2,29.60,South,176,3.1,6.3,78,0.00,,OVC110,0.00,VWS V14.01,2013-07-28 02:12:00,
2013-07-27 22:17:00,68.4,61.2,29.60,SW,219,6.3,6.3,78,0.00,,OVC110,0.00,VWS V14.01,2013-07-28 02:17:00,
2013-07-27 22:22:00,68.4,61.2,29.60,SSW,193,3.1,6.3,78,0.00,,OVC110,0.00,VWS V14.01,2013-07-28 02:22:00,
2013-07-27 22:28:00,68.2,61.4,29.60,South,175,2.7,4.0,79,0.00,,OVC110,0.00,VWS V14.01,2013-07-28 02:28:00,
2013-07-27 22:33:00,68.2,61.4,29.60,South,173,4.9,6.3,79,0.00,,-RA,0.00,VWS V14.01,2013-07-28 02:33:00,
2013-07-27 22:38:00,68.0,61.6,29.60,SSE,159,5.4,5.4,80,0.00,,-RA,0.00,VWS V14.01,2013-07-28 02:38:00,
2013-07-27 22:43:00,68.0,61.6,29.60,SSE,152,5.4,8.1,80,0.00,,-RA,0.00,VWS V14.01,2013-07-28 02:43:00,
2013-07-27 22:48:00,67.8,61.4,29.60,SSE,167,3.1,6.3,80,0.00,,-RA,0.00,VWS V14.01,2013-07-28 02:48:00,
2013-07-27 22:53:00,67.8,61.8,29.57,SSW,192,4.5,5.4,81,0.00,,-RA,0.00,VWS V14.01,2013-07-28 02:53:00,
2013-07-27 22:58:00,67.8,61.8,29.57,South,173,5.8,5.8,81,0.00,,-RA,0.00,VWS V14.01,2013-07-28 02:58:00,
2013-07-27 23:03:00,67.8,61.8,29.57,SSE,164,5.4,5.4,81,0.00,,-RA,0.00,VWS V14.01,2013-07-28 03:03:00,
2013-07-27 23:08:00,67.8,61.8,29.57,South,180,4.0,5.8,81,0.00,,-RA,0.00,VWS V14.01,2013-07-28 03:08:00,
2013-07-27 23:13:00,67.8,61.8,29.57,SSW,192,5.4,5.8,81,0.00,,-RA,0.00,VWS V14.01,2013-07-28 03:13:00,
2013-07-27 23:18:00,67.8,62.1,29.57,SSE,157,3.6,6.3,82,0.00,,-RA,0.00,VWS V14.01,2013-07-28 03:18:00,
2013-07-27 23:23:00,67.8,62.1,29.57,South,171,5.4,5.8,82,0.00,,-RA,0.00,VWS V14.01,2013-07-28 03:23:00,
2013-07-27 23:28:00,67.8,62.1,29.57,South,176,6.3,6.3,82,0.00,,-RA,0.00,VWS V14.01,2013-07-28 03:28:00,
2013-07-27 23:33:00,67.8,62.1,29.57,SSE,167,5.4,8.1,82,0.00,,-RA,0.00,VWS V14.01,2013-07-28 03:33:00,
2013-07-27 23:38:00,67.8,62.1,29.57,SSE,158,5.8,8.3,82,0.00,,-RA,0.00,VWS V14.01,2013-07-28 03:38:00,
2013-07-27 23:43:00,67.8,62.1,29.57,SE,144,4.0,6.3,82,0.00,,-RA,0.00,VWS V14.01,2013-07-28 03:43:00,
2013-07-27 23:48:00,67.6,62.0,29.57,South,175,3.1,5.8,82,0.00,,-RA,0.00,VWS V14.01,2013-07-28 03:48:00,
2013-07-27 23:53:00,67.6,62.0,29.57,SSW,203,5.4,5.4,82,0.00,,-RA,0.00,VWS V14.01,2013-07-28 03:53:00,
2013-07-27 23:58:00,67.6,62.0,29.57,SSE,163,4.9,5.8,82,0.00,,-RA,0.00,VWS V14.01,2013-07-28 03:58:00,